Time;durP1;ratioP1;P1;durP2;ratioP2;P2;SDS_P1;SDS_P2;PMS_P1;PMS_P2;Temp;Humidity;BMP_temperature;BMP_pressure;BME280_temperature;BME280_humidity;BME280_pressure;Samples;Min_cycle;Max_cycle;Signal;HPM_P1;HPM_P2
2020/12/09 00:02:07;;;;;;;52.00;27.13;;;;;;;-2.09;72.07;96817.76;1783113;80;21119;-81
2020/12/09 00:04:36;;;;;;;34.48;19.75;;;;;;;-2.12;72.07;96826.94;1783230;80;21553;-80
2020/12/09 00:07:05;;;;;;;51.85;28.25;;;;;;;-2.15;72.18;96819.69;1783025;80;21139;-82
2020/12/09 00:09:33;;;;;;;50.12;30.08;;;;;;;-2.16;72.36;96819.77;1782978;80;21317;-81
2020/12/09 00:12:04;;;;;;;30.97;17.10;;;;;;;-2.12;72.46;96817.45;1782955;80;21238;-83
2020/12/09 00:14:33;;;;;;;60.33;36.13;;;;;;;-2.09;72.06;96820.34;1782917;80;21139;-82
2020/12/09 00:17:02;;;;;;;41.05;22.10;;;;;;;-2.11;72.21;96821.70;1783039;80;21097;-85
2020/12/09 00:19:30;;;;;;;49.85;31.45;;;;;;;-2.06;72.28;96815.06;1782853;80;21144;-80
2020/12/09 00:21:59;;;;;;;42.90;24.40;;;;;;;-2.02;72.28;96816.13;1782971;80;21199;-82
2020/12/09 00:24:28;;;;;;;39.73;21.60;;;;;;;-1.94;72.10;96819.23;1782979;80;21498;-81
2020/12/09 00:26:56;;;;;;;36.05;22.02;;;;;;;-1.87;71.99;96819.80;1782956;80;21132;-83
2020/12/09 00:29:26;;;;;;;32.67;18.85;;;;;;;-1.83;71.76;96820.05;1783251;80;21128;-80
2020/12/09 00:31:54;;;;;;;40.70;23.95;;;;;;;-1.80;71.58;96816.48;1782484;79;21569;-81
2020/12/09 00:34:23;;;;;;;35.20;20.62;;;;;;;-1.81;71.59;96823.40;1777795;80;21196;-82
2020/12/09 00:36:51;;;;;;;37.63;20.15;;;;;;;-1.79;71.42;96821.58;1777883;80;21061;-82
2020/12/09 00:39:21;;;;;;;35.38;19.05;;;;;;;-1.84;71.27;96816.23;1777674;80;21064;-82
2020/12/09 00:41:49;;;;;;;33.50;19.23;;;;;;;-1.87;71.14;96824.13;1777910;80;21498;-82
2020/12/09 00:44:18;;;;;;;35.33;20.65;;;;;;;-1.97;71.46;96820.64;1777753;80;21116;-82
2020/12/09 00:46:47;;;;;;;34.30;19.92;;;;;;;-2.00;71.67;96828.53;1777759;80;21206;-82
2020/12/09 00:49:16;;;;;;;38.42;21.02;;;;;;;;;;1777656;80;21089;-82
2020/12/09 00:51:45;;;;;;;34.48;20.35;;;;;;;-1.90;71.68;96816.05;1749765;80;21124;-83
2020/12/09 00:54:16;;;;;;;34.00;18.65;;;;;;;-1.84;71.47;96823.52;1777842;80;21136;-82
2020/12/09 00:56:46;;;;;;;39.63;22.27;;;;;;;-1.81;71.27;96821.27;1778641;80;21112;-81
2020/12/09 00:59:17;;;;;;;39.90;21.02;;;;;;;-1.87;71.31;96826.25;1777988;80;21191;-81
2020/12/09 01:01:45;;;;;;;32.80;19.52;;;;;;;-1.98;71.14;96831.04;1778005;80;21140;-83
2020/12/09 01:04:16;;;;;;;35.50;19.80;;;;;;;-2.09;71.63;96821.17;1777823;80;21160;-82
2020/12/09 01:06:45;;;;;;;60.43;30.45;;;;;;;-2.10;71.74;96816.09;1777993;80;21144;-83
2020/12/09 01:09:14;;;;;;;42.98;24.07;;;;;;;-2.12;71.99;96816.62;1777869;80;21112;-81
2020/12/09 01:11:44;;;;;;;39.88;21.62;;;;;;;-2.08;71.96;96815.56;1777940;80;21216;-81
2020/12/09 01:14:13;;;;;;;37.00;20.25;;;;;;;-2.10;72.04;96819.95;1778086;80;21184;-83
2020/12/09 01:16:43;;;;;;;38.15;21.85;;;;;;;-2.08;72.07;96820.72;1777813;80;21175;-81
2020/12/09 01:19:12;;;;;;;42.17;23.65;;;;;;;-2.08;72.07;96815.56;1777774;80;21121;-81
2020/12/09 01:21:40;;;;;;;49.75;29.00;;;;;;;-2.05;72.18;96803.83;1777977;80;21085;-81
2020/12/09 01:24:09;;;;;;;44.42;28.15;;;;;;;-2.02;72.12;96799.36;1777995;80;21526;-82
2020/12/09 01:26:38;;;;;;;39.60;23.90;;;;;;;-1.96;72.00;96800.83;1778038;80;21065;-83
2020/12/09 01:29:06;;;;;;;34.18;18.37;;;;;;;-1.94;71.96;96802.91;1777895;80;21573;-82
2020/12/09 01:31:35;;;;;;;32.98;18.55;;;;;;;-1.89;71.94;96800.97;1777765;80;21596;-83
2020/12/09 01:34:04;;;;;;;36.88;19.45;;;;;;;-1.85;71.71;96796.03;1774937;79;21096;-83
2020/12/09 01:36:32;;;;;;;36.23;21.33;;;;;;;-1.81;71.61;96786.42;1774625;80;21199;-82
2020/12/09 01:39:01;;;;;;;38.58;20.50;;;;;;;-1.86;71.40;96790.50;1774698;80;21117;-81
2020/12/09 01:41:30;;;;;;;36.53;20.50;;;;;;;-1.89;71.58;96790.19;1777629;80;21061;-82
2020/12/09 01:43:59;;;;;;;33.18;19.52;;;;;;;-1.92;71.54;96784.31;1774733;80;21089;-82
2020/12/09 01:46:31;;;;;;;34.80;19.73;;;;;;;-1.88;71.72;96783.28;1774546;80;21072;-83
2020/12/09 01:49:00;;;;;;;;;;;;;;;-1.82;71.53;96789.92;1777215;80;21361;-82
2020/12/09 01:51:29;;;;;;;35.08;20.15;;;;;;;-1.87;71.42;96790.12;1774443;80;20243;-83
2020/12/09 01:53:59;;;;;;;35.50;19.77;;;;;;;-1.93;71.76;96793.80;1775670;80;21083;-82
2020/12/09 01:56:28;;;;;;;36.30;21.35;;;;;;;-1.91;71.57;96788.56;1774635;80;21185;-82
2020/12/09 01:58:57;;;;;;;38.98;20.70;;;;;;;-1.92;71.68;96789.02;1774457;80;21117;-81
2020/12/09 02:01:25;;;;;;;32.85;20.12;;;;;;;-1.84;71.72;96784.80;1774657;80;22245;-83
2020/12/09 02:03:54;;;;;;;35.83;20.68;;;;;;;-1.85;71.39;96790.88;1774384;80;21168;-82
2020/12/09 02:06:24;;;;;;;36.68;20.80;;;;;;;-1.86;71.62;96789.20;1774446;80;21164;-81
2020/12/09 02:08:52;;;;;;;36.28;19.62;;;;;;;-1.86;71.37;96790.95;1775344;80;21124;-83
2020/12/09 02:11:22;;;;;;;32.10;18.62;;;;;;;-1.84;71.60;96791.25;1774610;80;21514;-83
2020/12/09 02:13:51;;;;;;;39.03;20.20;;;;;;;-1.73;71.36;96792.07;1774850;80;22222;-82
2020/12/09 02:16:20;;;;;;;34.80;20.08;;;;;;;-1.70;71.19;96790.20;1751521;79;21202;-80
2020/12/09 02:18:49;;;;;;;36.20;18.57;;;;;;;-1.67;71.17;96796.50;1724274;83;21062;-81
2020/12/09 02:21:22;;;;;;;36.60;19.52;;;;;;;-1.62;71.06;96789.39;1732976;81;21093;-83
2020/12/09 02:23:51;;;;;;;48.33;25.25;;;;;;;-1.55;70.98;96792.98;1732648;82;21573;-82
2020/12/09 02:26:20;;;;;;;32.28;18.65;;;;;;;-1.57;70.52;96794.80;1733227;82;22280;-82
2020/12/09 02:28:50;;;;;;;35.88;21.10;;;;;;;-1.63;70.61;96799.34;1732371;82;21091;-82
2020/12/09 02:31:20;;;;;;;36.17;21.90;;;;;;;-1.67;70.66;96796.50;1732551;82;21084;-81
2020/12/09 02:33:48;;;;;;;33.33;20.37;;;;;;;-1.63;70.71;96804.50;1732599;82;21486;-82
2020/12/09 02:36:17;;;;;;;34.60;20.23;;;;;;;-1.56;70.56;96804.22;1732604;82;21053;-81
2020/12/09 02:38:46;;;;;;;33.78;19.75;;;;;;;-1.61;70.46;96802.67;1732600;82;21323;-81
2020/12/09 02:41:15;;;;;;;32.58;19.25;;;;;;;-1.68;70.39;96806.91;1732793;82;21148;-82
2020/12/09 02:43:44;;;;;;;34.60;20.60;;;;;;;-1.77;70.54;96800.42;1732445;82;21125;-82
2020/12/09 02:46:13;;;;;;;37.10;19.30;;;;;;;-1.89;70.84;96799.22;1732478;82;21132;-82
2020/12/09 02:48:42;;;;;;;33.55;18.90;;;;;;;-1.90;70.99;96797.55;1732702;82;21578;-83
2020/12/09 02:51:10;;;;;;;33.80;19.25;;;;;;;-1.93;71.15;96791.68;1732515;82;21577;-81
2020/12/09 02:53:39;;;;;;;37.10;20.50;;;;;;;-1.92;71.25;96794.64;1732393;82;21076;-82
2020/12/09 02:56:08;;;;;;;33.35;19.48;;;;;;;-1.93;71.37;96795.09;1733018;82;21061;-81
2020/12/09 02:58:37;;;;;;;35.17;20.97;;;;;;;-1.85;71.41;96793.45;1732461;82;21057;-81
2020/12/09 03:01:06;;;;;;;35.38;20.80;;;;;;;-1.80;71.15;96799.25;1732883;81;21040;-82
2020/12/09 03:03:35;;;;;;;35.95;21.95;;;;;;;-1.84;71.14;96797.70;1732679;82;21206;-81
2020/12/09 03:06:04;;;;;;;30.20;18.45;;;;;;;-1.86;71.21;96796.11;1732589;81;21550;-80
2020/12/09 03:08:33;;;;;;;37.00;20.32;;;;;;;-1.88;71.25;96789.73;1732498;82;21132;-82
2020/12/09 03:11:02;;;;;;;32.30;19.95;;;;;;;-1.92;71.24;96796.77;1732604;82;21153;-81
2020/12/09 03:13:31;;;;;;;37.78;21.17;;;;;;;-1.95;71.31;96790.92;1732462;82;21148;-80
2020/12/09 03:16:00;;;;;;;31.85;18.98;;;;;;;-1.97;71.39;96791.42;1732436;82;21373;-81
2020/12/09 03:18:29;;;;;;;32.93;19.65;;;;;;;-1.95;71.52;96797.38;1732733;82;21089;-81
2020/12/09 03:20:57;;;;;;;34.48;20.32;;;;;;;-2.02;71.27;96796.77;1732585;82;21061;-82
2020/12/09 03:23:26;;;;;;;33.50;18.73;;;;;;;-2.11;71.57;96798.48;1732651;82;21068;-81
2020/12/09 03:25:55;;;;;;;36.08;19.42;;;;;;;-2.16;71.78;96793.52;1732860;82;21160;-82
2020/12/09 03:28:23;;;;;;;36.58;20.52;;;;;;;-2.22;72.07;96792.49;1735820;81;21146;-80
2020/12/09 03:30:52;;;;;;;36.15;21.10;;;;;;;-2.24;72.10;96792.19;1735732;80;21108;-82
2020/12/09 03:33:21;;;;;;;33.90;18.98;;;;;;;-2.28;72.34;96799.20;1734182;82;21194;-81
2020/12/09 03:35:51;;;;;;;38.60;20.95;;;;;;;-2.28;72.30;96793.21;1732475;81;21120;-80
2020/12/09 03:38:21;;;;;;;33.98;18.37;;;;;;;-2.34;72.51;96795.59;1732576;82;21105;-81
2020/12/09 03:40:49;;;;;;;34.55;19.82;;;;;;;-2.37;72.67;96791.02;1732395;82;21203;-81
2020/12/09 03:43:19;;;;;;;31.93;18.42;;;;;;;-2.40;72.67;96788.12;1732349;82;21084;-81
2020/12/09 03:45:47;;;;;;;31.15;18.35;;;;;;;-2.47;72.83;96794.00;1732594;82;21509;-81
2020/12/09 03:48:17;;;;;;;36.73;19.15;;;;;;;-2.52;73.03;96795.09;1733281;82;21080;-81
2020/12/09 03:50:46;;;;;;;32.28;18.48;;;;;;;-2.53;73.37;96798.58;1732512;82;21033;-82
2020/12/09 03:53:15;;;;;;;29.32;17.10;;;;;;;-2.46;73.32;96796.12;1732467;82;22332;-82
2020/12/09 03:55:44;;;;;;;33.10;18.62;;;;;;;-2.40;73.18;96789.41;1732184;82;21649;-81
2020/12/09 03:58:13;;;;;;;30.23;18.37;;;;;;;-2.34;73.06;96789.61;1732371;82;21175;-82
2020/12/09 04:00:42;;;;;;;34.48;18.90;;;;;;;-2.30;72.75;96780.39;1732276;82;21116;-82
2020/12/09 04:03:11;;;;;;;35.58;21.02;;;;;;;-2.28;72.70;96779.86;1732374;82;21151;-82
2020/12/09 04:05:39;;;;;;;33.42;18.62;;;;;;;-2.32;72.55;96780.89;1732409;82;21198;-82
2020/12/09 04:08:08;;;;;;;29.02;18.23;;;;;;;-2.32;72.73;96789.91;1732680;82;21139;-80
2020/12/09 04:10:37;;;;;;;32.83;19.23;;;;;;;-2.25;72.47;96790.52;1733563;82;21065;-80
2020/12/09 04:13:05;;;;;;;33.88;18.65;;;;;;;-2.26;72.40;96789.65;1733471;82;21029;-82
2020/12/09 04:15:34;;;;;;;33.83;18.82;;;;;;;-2.28;72.45;96786.77;1735670;81;21146;-81
2020/12/09 04:18:03;;;;;;;31.62;18.82;;;;;;;-2.29;72.43;96785.09;1741098;82;21214;-81
2020/12/09 04:20:33;;;;;;;33.53;18.42;;;;;;;-2.28;72.59;96785.47;1740811;82;21121;-81
2020/12/09 04:23:01;;;;;;;32.20;18.62;;;;;;;-2.26;72.42;96789.65;1740870;82;21153;-81
2020/12/09 04:25:30;;;;;;;37.28;19.55;;;;;;;-2.29;72.40;96788.97;1740830;82;21432;-81
2020/12/09 04:27:59;;;;;;;32.38;18.82;;;;;;;-2.34;72.43;96793.02;1740774;82;21078;-80
2020/12/09 04:30:29;;;;;;;32.83;17.57;;;;;;;-2.38;72.54;96797.91;1740846;82;21398;-83
2020/12/09 04:32:57;;;;;;;35.25;18.92;;;;;;;-2.42;72.65;96796.39;1740753;82;21098;-82
2020/12/09 04:35:26;;;;;;;34.90;18.12;;;;;;;-2.46;72.82;96793.54;1741001;82;21107;-81
2020/12/09 04:37:55;;;;;;;32.05;18.85;;;;;;;-2.46;72.82;96778.07;1740959;82;21585;-81
2020/12/09 04:40:25;;;;;;;32.95;19.52;;;;;;;-2.45;72.96;96784.90;1740699;82;21582;-80
2020/12/09 04:42:58;;;;;;;32.03;19.60;;;;;;;-2.39;72.95;96785.92;1740915;82;21218;-80
2020/12/09 04:45:31;;;;;;;34.70;19.52;;;;;;;-2.39;72.72;96793.66;1740748;82;21590;-83
2020/12/09 04:48:10;;;;;;;;;;;;;;;-2.43;72.81;96792.14;1743455;82;21759;-81
2020/12/09 04:51:19;;;;;;;62.20;32.42;;;;;;;-2.42;72.76;96787.36;1740915;82;20235;-82
2020/12/09 04:53:47;;;;;;;112.85;44.30;;;;;;;-2.45;72.90;96782.32;1739373;82;21495;-82
2020/12/09 04:56:16;;;;;;;43.38;22.65;;;;;;;-2.42;73.13;96784.33;1741194;82;21210;-82
2020/12/09 04:58:54;;;;;;;38.83;22.30;;;;;;;-2.37;72.91;96789.72;1740911;82;21181;-80
2020/12/09 05:01:24;;;;;;;148.07;52.75;;;;;;;-2.35;73.01;96787.94;1741169;82;21125;-83
2020/12/09 05:03:52;;;;;;;179.55;64.12;;;;;;;-2.24;72.86;96781.41;1741009;82;21205;-81
2020/12/09 05:06:21;;;;;;;144.13;50.98;;;;;;;-2.19;72.55;96783.34;1740918;82;21145;-82
2020/12/09 05:08:56;;;;;;;87.30;35.48;;;;;;;-2.21;72.33;96776.11;1740979;82;21242;-83
2020/12/09 05:11:26;;;;;;;245.75;77.40;;;;;;;-2.25;72.28;96764.72;1741150;82;21110;-81
2020/12/09 05:13:57;;;;;;;82.65;32.20;;;;;;;-2.34;72.43;96774.13;1741458;82;21169;-82
2020/12/09 05:16:25;;;;;;;65.90;27.67;;;;;;;-2.37;72.54;96776.83;1738958;80;21187;-82
2020/12/09 05:18:59;;;;;;;81.80;32.75;;;;;;;-2.43;72.58;96776.21;1735181;81;21135;-83
2020/12/09 05:21:28;;;;;;;39.23;20.00;;;;;;;-2.49;72.86;96782.92;1734062;82;21360;-83
2020/12/09 05:24:01;;;;;;;83.72;31.77;;;;;;;-2.49;72.95;96779.05;1733648;82;21100;-81
2020/12/09 05:26:32;;;;;;;34.23;18.87;;;;;;;-2.58;73.13;96782.45;1733729;82;21077;-82
2020/12/09 05:29:17;;;;;;;40.23;19.92;;;;;;;-2.69;73.58;96786.31;1733048;82;21210;-83
2020/12/09 05:31:49;;;;;;;144.28;50.12;;;;;;;-2.71;73.79;96789.87;1733307;82;21057;-83
2020/12/09 05:34:29;;;;;;;39.70;21.25;;;;;;;-2.65;74.17;96785.74;1732331;81;21209;-81
2020/12/09 05:37:01;;;;;;;50.48;23.95;;;;;;;-2.52;74.13;96782.20;1732644;82;21518;-84
2020/12/09 05:39:30;;;;;;;60.40;27.02;;;;;;;-2.40;73.89;96784.25;1732870;82;21065;-85
2020/12/09 05:42:16;;;;;;;67.00;30.85;;;;;;;-2.33;73.65;96779.22;1732939;82;21071;-84
2020/12/09 05:44:45;;;;;;;77.30;33.02;;;;;;;-2.25;73.91;96778.91;1706691;82;21128;-83
2020/12/09 05:47:14;;;;;;;49.55;26.90;;;;;;;-2.20;74.26;96776.48;1732951;82;22183;-85
2020/12/09 05:49:43;;;;;;;62.53;30.62;;;;;;;-2.11;73.99;96774.43;1732852;82;21656;-83
2020/12/09 05:52:20;;;;;;;70.47;36.50;;;;;;;-2.07;73.55;96781.14;1732979;82;21176;-83
2020/12/09 05:54:51;;;;;;;60.78;31.42;;;;;;;-2.05;73.37;96776.28;1733060;82;21076;-83
2020/12/09 05:57:32;;;;;;;51.92;27.00;;;;;;;-2.06;73.07;96786.68;1732841;82;21056;-83
2020/12/09 06:00:02;;;;;;;54.53;29.80;;;;;;;-2.08;73.04;96789.76;1749102;81;21609;-83
2020/12/09 06:02:33;;;;;;;45.65;27.45;;;;;;;-2.13;73.33;96791.27;1749046;81;21211;-84
2020/12/09 06:05:01;;;;;;;38.42;21.00;;;;;;;-2.12;73.61;96787.78;1749517;82;21068;-81
2020/12/09 06:07:31;;;;;;;46.98;26.52;;;;;;;-2.10;73.49;96796.28;1749019;82;21068;-85
2020/12/09 06:10:15;;;;;;;49.00;28.70;;;;;;;-2.04;73.38;96799.05;1749449;82;21068;-83
2020/12/09 06:12:59;;;;;;;45.78;25.68;;;;;;;-1.98;73.51;96797.49;1749746;80;21364;-86
2020/12/09 06:15:31;;;;;;;50.00;27.82;;;;;;;-2.04;73.24;96799.05;1750043;82;21059;-84
2020/12/09 06:18:21;;;;;;;35.45;19.40;;;;;;;-2.07;73.52;96792.75;1750459;82;21168;-83
2020/12/09 06:20:52;;;;;;;42.55;22.62;;;;;;;-2.04;73.48;96798.59;1751189;82;21024;-83
2020/12/09 06:23:30;;;;;;;44.37;22.93;;;;;;;-2.04;73.77;96804.21;1751309;82;21040;-84
2020/12/09 06:26:07;;;;;;;37.42;20.08;;;;;;;-2.00;73.75;96794.16;1751403;82;21261;-83
2020/12/09 06:28:46;;;;;;;38.63;20.23;;;;;;;-1.96;73.63;96795.67;1750789;82;21168;-83
2020/12/09 06:31:23;;;;;;;42.30;21.82;;;;;;;-1.98;73.49;96802.20;1751420;82;21143;-85
2020/12/09 06:34:26;;;;;;;39.65;21.65;;;;;;;-2.04;73.64;96808.08;1838867;77;28070;-83
2020/12/09 06:37:12;;;;;;;74.55;30.95;;;;;;;-2.17;73.77;96816.35;1809920;77;21022;-83
2020/12/09 06:39:41;;;;;;;42.30;21.42;;;;;;;-2.21;74.06;96801.91;1735629;81;21323;-83
2020/12/09 06:42:10;;;;;;;42.17;23.95;;;;;;;-2.11;74.22;96802.81;1748401;81;21132;-85
2020/12/09 06:44:48;;;;;;;47.03;22.85;;;;;;;-2.08;74.07;96797.05;1761327;81;21125;-84
2020/12/09 06:47:17;;;;;;;42.08;22.22;;;;;;;-2.08;74.24;96802.66;1807540;79;21236;-85
2020/12/09 06:49:48;;;;;;;38.55;20.27;;;;;;;-2.02;73.97;96808.39;1810037;79;21013;-84
2020/12/09 06:52:30;;;;;;;49.95;24.15;;;;;;;-2.00;73.77;96804.02;1812517;79;21133;-84
2020/12/09 06:54:59;;;;;;;42.83;23.55;;;;;;;-2.00;74.08;96797.56;1799629;79;21221;-86
2020/12/09 06:57:38;;;;;;;56.08;25.68;;;;;;;-1.94;73.94;96795.17;1808998;79;21062;-85
2020/12/09 07:00:19;;;;;;;41.70;23.02;;;;;;;-1.94;73.79;96805.04;1807759;79;21088;-85
2020/12/09 07:02:50;;;;;;;47.03;23.18;;;;;;;-1.91;73.96;96801.02;1808476;79;21061;-86
2020/12/09 07:05:22;;;;;;;53.85;26.90;;;;;;;-1.86;73.78;96804.69;1807275;78;21355;-84
2020/12/09 07:07:51;;;;;;;43.35;21.65;;;;;;;-1.86;73.67;96811.14;1811705;77;21145;-85
2020/12/09 07:10:23;;;;;;;43.35;23.87;;;;;;;-1.82;73.55;96810.56;1811112;79;21097;-87
2020/12/09 07:13:17;;;;;;;42.40;24.57;;;;;;;-1.84;73.38;96816.23;1808622;79;21094;-85
2020/12/09 07:15:52;;;;;;;44.27;24.20;;;;;;;-1.99;73.50;96803.56;1802071;79;21593;-84
2020/12/09 07:18:20;;;;;;;45.70;25.25;;;;;;;-2.11;73.84;96799.77;1810777;79;21365;-85
2020/12/09 07:20:50;;;;;;;43.52;23.90;;;;;;;-2.22;74.20;96792.95;1809754;79;21165;-86
2020/12/09 07:23:19;;;;;;;50.28;27.70;;;;;;;-2.25;74.54;96796.97;1802490;78;21240;-84
2020/12/09 07:25:48;;;;;;;42.08;24.18;;;;;;;-2.27;74.84;96790.56;1804051;79;21047;-85
2020/12/09 07:28:17;;;;;;;36.08;19.48;;;;;;;-2.15;74.83;96789.19;1809893;79;21177;-85
2020/12/09 07:30:47;;;;;;;43.85;22.75;;;;;;;-2.11;74.32;96793.33;1809721;79;21487;-86
2020/12/09 07:33:18;;;;;;;43.83;21.70;;;;;;;-2.15;74.54;96802.92;1809376;79;21499;-88
2020/12/09 07:35:46;;;;;;;48.52;25.88;;;;;;;-2.17;74.45;96809.07;1806823;79;21188;-85
2020/12/09 07:38:15;;;;;;;44.08;21.40;;;;;;;-2.19;74.64;96803.15;1808407;79;21128;-85
2020/12/09 07:40:44;;;;;;;44.50;23.15;;;;;;;-2.11;74.72;96801.52;1799505;79;21133;-88
2020/12/09 07:43:15;;;;;;;45.30;23.60;;;;;;;-2.00;74.83;96801.44;1808128;79;21194;-88
2020/12/09 07:45:46;;;;;;;47.83;27.02;;;;;;;-1.91;74.61;96793.27;1801808;79;21310;-88
2020/12/09 07:48:18;;;;;;;41.37;22.37;;;;;;;-1.82;74.27;96791.21;1809345;79;21097;-85
2020/12/09 07:50:51;;;;;;;48.00;23.98;;;;;;;-1.72;74.26;96795.90;1807359;79;21034;-85
2020/12/09 07:53:20;;;;;;;41.18;22.95;;;;;;;-1.63;73.92;96801.08;1810599;79;21173;-89
2020/12/09 07:55:49;;;;;;;46.65;25.02;;;;;;;-1.59;73.35;96806.96;1803919;79;21361;-85
2020/12/09 07:58:18;;;;;;;39.05;22.22;;;;;;;-1.59;73.04;96813.41;1750472;79;21522;-86
2020/12/09 08:00:48;;;;;;;43.52;22.45;;;;;;;-1.68;72.82;96797.87;1803398;79;21607;-85
2020/12/09 08:03:23;;;;;;;44.53;22.82;;;;;;;-1.70;73.58;96803.56;1809174;79;21030;-85
2020/12/09 08:06:02;;;;;;;40.17;21.73;;;;;;;-1.72;73.83;96801.48;1810540;79;21089;-87
2020/12/09 08:08:28;;;;;;;37.93;20.35;;;;;;;-1.77;73.61;96799.59;1806407;79;21418;-87
2020/12/09 08:11:10;;;;;;;48.78;26.45;;;;;;;-1.78;73.69;96812.09;1810325;79;21100;-88
2020/12/09 08:13:39;;;;;;;49.80;27.90;;;;;;;-1.69;73.79;96815.11;1803626;79;21613;-83
2020/12/09 08:16:13;;;;;;;45.20;24.25;;;;;;;-1.61;73.87;96811.72;1808407;79;21048;-88
2020/12/09 08:18:43;;;;;;;47.53;23.90;;;;;;;-1.57;73.38;96810.30;1811038;79;21200;-89
2020/12/09 08:21:13;;;;;;;48.35;24.55;;;;;;;-1.55;73.30;96814.47;1805883;79;21358;-87
2020/12/09 08:23:46;;;;;;;42.35;25.30;;;;;;;-1.46;73.13;96809.36;1793594;79;21200;-85
2020/12/09 08:26:36;;;;;;;44.48;23.18;;;;;;;-1.37;72.86;96816.67;1810487;79;21061;-87
2020/12/09 08:29:05;;;;;;;48.15;25.37;;;;;;;-1.32;72.46;96818.59;1808950;79;21215;-88
2020/12/09 08:31:34;;;;;;;37.78;21.90;;;;;;;-1.38;72.61;96817.58;1806520;79;21320;-84
2020/12/09 08:34:14;;;;;;;40.28;23.75;;;;;;;-1.38;72.56;96817.13;1804099;79;21255;-85
2020/12/09 08:36:47;;;;;;;40.83;21.75;;;;;;;-1.45;72.50;96811.86;1806984;78;21058;-85
2020/12/09 08:39:16;;;;;;;39.88;23.12;;;;;;;-1.45;72.23;96811.86;1808878;79;21069;-85
2020/12/09 08:41:47;;;;;;;43.63;23.55;;;;;;;-1.52;72.28;96814.35;1805813;79;21168;-86
2020/12/09 08:44:16;;;;;;;44.10;23.07;;;;;;;-1.61;72.86;96813.00;1808984;79;21467;-87
2020/12/09 08:46:47;;;;;;;45.50;23.80;;;;;;;-1.62;72.87;96810.50;1799971;79;21483;-86
2020/12/09 08:49:15;;;;;;;45.40;24.00;;;;;;;-1.56;73.09;96805.52;1808828;79;21133;-84
2020/12/09 08:51:44;;;;;;;41.08;22.85;;;;;;;-1.48;72.91;96802.98;1805979;79;21062;-86
2020/12/09 08:54:14;;;;;;;39.53;22.40;;;;;;;-1.50;72.67;96804.78;1811777;79;21372;-85
2020/12/09 08:56:43;;;;;;;44.23;22.32;;;;;;;-1.49;73.04;96801.28;1803157;79;21104;-86
2020/12/09 08:59:12;;;;;;;36.23;19.90;;;;;;;-1.47;72.73;96802.53;1806398;79;21427;-86
2020/12/09 09:01:42;;;;;;;44.00;21.20;;;;;;;-1.46;72.45;96798.58;1809740;79;21149;-83
2020/12/09 09:04:13;;;;;;;42.00;21.90;;;;;;;-1.51;72.62;96794.52;1813033;79;21206;-85
2020/12/09 09:06:41;;;;;;;42.80;22.07;;;;;;;-1.54;72.83;96790.35;1808012;79;21153;-86
2020/12/09 09:09:10;;;;;;;40.08;22.85;;;;;;;-1.59;72.90;96783.72;1803966;79;21189;-85
2020/12/09 09:11:38;;;;;;;45.08;23.07;;;;;;;-1.66;73.02;96783.13;1804947;79;21126;-87
2020/12/09 09:14:09;;;;;;;42.55;22.55;;;;;;;-1.71;73.41;96782.08;1804840;79;21670;-88
2020/12/09 09:16:38;;;;;;;46.08;23.70;;;;;;;-1.69;73.52;96785.41;1806432;79;21058;-85
2020/12/09 09:19:06;;;;;;;48.25;22.98;;;;;;;-1.66;73.59;96774.09;1800301;79;21077;-86
2020/12/09 09:21:37;;;;;;;46.65;25.15;;;;;;;-1.65;73.54;96770.18;1802530;79;21163;-87
2020/12/09 09:24:06;;;;;;;45.80;24.18;;;;;;;-1.58;73.50;96778.94;1804075;79;22216;-87
2020/12/09 09:26:43;;;;;;;46.02;25.70;;;;;;;-1.54;73.16;96776.58;1809833;79;21074;-85
2020/12/09 09:29:12;;;;;;;41.60;21.70;;;;;;;-1.60;73.20;96779.02;1808754;79;21133;-83
2020/12/09 09:31:43;;;;;;;40.15;21.68;;;;;;;-1.70;73.27;96777.30;1809144;78;21137;-85
2020/12/09 09:34:12;;;;;;;45.50;22.80;;;;;;;-1.73;73.54;96776.13;1799768;79;21117;-88
2020/12/09 09:36:43;;;;;;;51.28;24.10;;;;;;;-1.68;73.54;96775.92;1807684;79;21144;-85
2020/12/09 09:39:13;;;;;;;43.63;23.47;;;;;;;-1.64;73.51;96776.18;1810135;79;21144;-83
2020/12/09 09:41:42;;;;;;;44.23;23.32;;;;;;;-1.59;73.75;96772.94;1806490;79;21160;-87
2020/12/09 09:44:12;;;;;;;40.83;21.27;;;;;;;-1.59;73.31;96766.94;1810552;79;21124;-84
2020/12/09 09:46:41;;;;;;;48.73;23.75;;;;;;;-1.56;73.31;96771.48;1797691;79;21090;-87
2020/12/09 09:49:10;;;;;;;40.00;22.20;;;;;;;-1.55;73.27;96768.45;1805750;79;21370;-88
2020/12/09 09:51:39;;;;;;;44.10;22.35;;;;;;;-1.57;73.19;96753.03;1809159;79;21057;-86
2020/12/09 09:54:08;;;;;;;52.53;23.55;;;;;;;-1.56;73.03;96753.41;1807831;79;21108;-88
2020/12/09 09:56:36;;;;;;;46.15;23.22;;;;;;;-1.58;73.36;96748.78;1809365;79;21075;-87
2020/12/09 09:59:05;;;;;;;41.88;21.93;;;;;;;-1.51;73.40;96745.46;1809535;79;21070;-87
2020/12/09 10:01:34;;;;;;;47.25;23.15;;;;;;;-1.53;73.17;96742.95;1809824;79;21216;-87
2020/12/09 10:04:06;;;;;;;41.75;22.95;;;;;;;-1.60;73.33;96746.73;1806812;79;21117;-85
2020/12/09 10:06:36;;;;;;;49.48;22.48;;;;;;;-1.68;73.17;96743.20;1796474;79;21193;-85
2020/12/09 10:09:07;;;;;;;46.65;23.70;;;;;;;-1.70;73.57;96739.86;1806673;79;21054;-87
2020/12/09 10:11:37;;;;;;;41.75;20.92;;;;;;;-1.60;73.53;96733.83;1808637;79;21159;-87
2020/12/09 10:14:07;;;;;;;44.67;22.48;;;;;;;-1.50;73.19;96737.63;1809670;79;21238;-86
2020/12/09 10:16:38;;;;;;;36.20;19.00;;;;;;;-1.49;73.23;96739.76;1809889;79;21173;-85
2020/12/09 10:19:07;;;;;;;41.23;21.85;;;;;;;-1.46;73.08;96740.92;1809413;79;21034;-88
2020/12/09 10:21:35;;;;;;;45.65;21.73;;;;;;;-1.51;72.97;96729.97;1806138;79;21073;-85
2020/12/09 10:24:06;;;;;;;44.03;22.22;;;;;;;-1.53;72.97;96722.30;1809510;79;21193;-85
2020/12/09 10:26:39;;;;;;;45.10;22.60;;;;;;;-1.55;73.14;96724.55;1806700;79;21362;-85
2020/12/09 10:29:09;;;;;;;40.80;23.30;;;;;;;-1.58;73.40;96724.71;1806013;79;21208;-87
2020/12/09 10:31:46;;;;;;;51.70;27.80;;;;;;;-1.48;73.42;96737.13;1807328;79;21351;-84
2020/12/09 10:34:18;;;;;;;44.30;23.98;;;;;;;-1.43;73.35;96729.97;1809450;79;21617;-85
2020/12/09 10:36:51;;;;;;;53.02;27.70;;;;;;;-1.41;73.32;96732.05;1806908;79;21053;-85
2020/12/09 10:39:23;;;;;;;48.60;27.60;;;;;;;-1.34;73.32;96727.43;1810741;79;21311;-85
2020/12/09 10:41:52;;;;;;;46.45;26.65;;;;;;;-1.23;73.07;96724.34;1809072;79;21121;-85
2020/12/09 10:44:20;;;;;;;44.55;22.73;;;;;;;-1.15;72.96;96721.75;1804173;79;21149;-84
2020/12/09 10:46:49;;;;;;;55.55;29.18;;;;;;;-1.17;72.50;96726.17;1812492;78;21136;-86
2020/12/09 10:49:17;;;;;;;51.10;25.68;;;;;;;-1.16;72.57;96725.70;1810915;79;21054;-86
2020/12/09 10:51:50;;;;;;;49.50;25.72;;;;;;;-1.18;72.62;96718.04;1802975;79;21477;-86
2020/12/09 10:54:19;;;;;;;48.42;25.05;;;;;;;-1.10;72.61;96718.49;1809142;79;21188;-86
2020/12/09 10:56:48;;;;;;;48.58;25.27;;;;;;;-0.95;72.33;96714.77;1805847;79;21076;-87
2020/12/09 10:59:19;;;;;;;51.28;27.02;;;;;;;-0.87;72.15;96712.66;1812454;79;21189;-86
2020/12/09 11:01:49;;;;;;;52.38;27.15;;;;;;;-0.83;72.02;96708.98;1802505;79;21503;-87
2020/12/09 11:04:19;;;;;;;47.33;25.85;;;;;;;-0.83;71.96;96706.40;1802049;79;21181;-86
2020/12/09 11:06:48;;;;;;;48.23;26.07;;;;;;;-0.90;72.19;96710.20;1806096;79;21077;-85
2020/12/09 11:09:18;;;;;;;49.33;26.50;;;;;;;-0.89;72.30;96710.58;1802401;79;21034;-86
2020/12/09 11:11:47;;;;;;;51.58;24.07;;;;;;;-0.90;72.09;96716.67;1806089;79;21179;-86
2020/12/09 11:14:16;;;;;;;50.63;28.30;;;;;;;-0.87;72.03;96720.41;1806114;79;21070;-86
2020/12/09 11:16:46;;;;;;;47.25;26.75;;;;;;;-0.89;72.02;96714.46;1807460;79;21410;-89
2020/12/09 11:19:27;;;;;;;45.38;25.45;;;;;;;-1.03;72.72;96712.56;1809322;79;21097;-88
2020/12/09 11:22:01;;;;;;;41.20;22.93;;;;;;;-1.15;72.55;96710.13;1809374;79;21106;-87
2020/12/09 11:24:30;;;;;;;41.90;21.83;;;;;;;-1.25;73.11;96714.52;1802702;79;21534;-85
2020/12/09 11:26:59;;;;;;;42.83;22.93;;;;;;;-1.21;72.98;96714.75;1794245;79;21054;-86
2020/12/09 11:29:27;;;;;;;43.25;21.82;;;;;;;-1.21;73.28;96711.71;1809274;79;21499;-87
2020/12/09 11:31:56;;;;;;;45.58;25.37;;;;;;;-1.28;72.87;96710.80;1812241;79;21084;-83
2020/12/09 11:34:27;;;;;;;47.55;23.75;;;;;;;-1.31;73.44;96710.48;1809425;79;21093;-86
2020/12/09 11:37:00;;;;;;;43.02;23.02;;;;;;;-1.24;73.63;96709.75;1802340;79;21074;-85